Glenburn, North Dakota
Current Conditions -  °F | °C
As of 5:33 AM on Thursday 18 Dec 2014 (Local Time) from KMIB Reporting Station
Broken Clouds Broken Clouds  
Wind Chill:   Ceiling: 3600
Heat Index: 14°   Visibility: 8mi
Dew Point: 14°   Wind: 7mph
Humidity: 100%   Direction: 130°SE
Pressure: 30.07"   Gusts: NA
Location:  48.51°N, 101.22°W
Report Text: KMIB 181133Z AUTO 13006KT 8SM R11/5500FT SCT008 BKN036 BKN046 M10/M10 A3007 RMK AO2 SNB1116 $
Loading
Personal Weather Stations






























Interactive Weather Map New forecast layout! Learn more

10-Day Weather Forecast

Advertisements
Track Severe Weather on mobile